Time;durP1;ratioP1;P1;durP2;ratioP2;P2;SDS_P1;SDS_P2;PMS_P1;PMS_P2;Temp;Humidity;BMP_temperature;BMP_pressure;BME280_temperature;BME280_humidity;BME280_pressure;Samples;Min_cycle;Max_cycle;Signal;HPM_P1;HPM_P2
2022/05/11 00:01:13;;;;;;;7.87;5.00;;;8.40;99.90;;;;;;4426973;28;656795;-68
2022/05/11 00:04:01;;;;;;;11.13;5.77;;;8.30;99.90;;;;;;4418811;28;655266;-69
2022/05/11 00:06:49;;;;;;;10.63;4.93;;;8.30;99.90;;;;;;4426796;28;657252;-68
2022/05/11 00:09:36;;;;;;;10.50;5.30;;;8.30;99.90;;;;;;4411895;28;656705;-67
2022/05/11 00:12:25;;;;;;;11.37;5.60;;;8.30;99.90;;;;;;4423261;28;657423;-67
2022/05/11 00:15:13;;;;;;;13.40;5.47;;;8.30;99.90;;;;;;4400114;28;657033;-68
2022/05/11 00:18:01;;;;;;;10.10;5.23;;;8.20;99.90;;;;;;4416706;28;656715;-69
2022/05/11 00:20:48;;;;;;;10.67;5.17;;;8.10;99.90;;;;;;4418376;28;656565;-67
2022/05/11 00:23:35;;;;;;;14.13;5.60;;;8.10;99.90;;;;;;4412764;28;656826;-69
2022/05/11 00:26:22;;;;;;;11.20;5.47;;;8.10;99.90;;;;;;4413775;28;658191;-68
2022/05/11 00:29:12;;;;;;;10.93;5.20;;;8.10;99.90;;;;;;4412944;28;656859;-68
2022/05/11 00:31:59;;;;;;;13.50;5.20;;;8.10;99.90;;;;;;4423191;28;656895;-68
2022/05/11 00:34:46;;;;;;;9.80;5.47;;;8.10;99.90;;;;;;4408663;28;656680;-67
2022/05/11 00:37:33;;;;;;;14.43;5.35;;;8.10;99.90;;;;;;4407337;28;656824;-67
2022/05/11 00:40:21;;;;;;;12.67;5.07;;;8.00;99.90;;;;;;4395930;28;657180;-69
2022/05/11 00:43:08;;;;;;;9.33;5.33;;;8.00;99.90;;;;;;4417862;28;657025;-67
2022/05/11 00:46:02;;;;;;;13.27;6.00;;;8.00;99.90;;;;;;4405496;28;655455;-67
2022/05/11 00:51:57;;;;;;;13.17;5.43;;;8.00;99.90;;;;;;4393938;28;656975;-68
2022/05/11 00:54:47;;;;;;;9.73;5.70;;;8.00;99.90;;;;;;4422321;28;656528;-68
2022/05/11 00:57:36;;;;;;;11.63;5.53;;;8.00;99.90;;;;;;4427124;28;656107;-67
2022/05/11 01:00:23;;;;;;;8.97;5.53;;;7.90;99.90;;;;;;4395118;28;656431;-68
2022/05/11 01:03:13;;;;;;;11.53;5.87;;;7.90;99.90;;;;;;4403761;28;655292;-68
2022/05/11 01:06:00;;;;;;;12.60;5.77;;;7.90;99.90;;;;;;4402908;28;656867;-68
2022/05/11 01:08:48;;;;;;;10.37;5.73;;;7.90;99.90;;;;;;4416791;28;657405;-68
2022/05/11 01:11:37;;;;;;;13.00;5.87;;;7.90;99.90;;;;;;4418743;28;656491;-69
2022/05/11 01:14:27;;;;;;;11.57;5.30;;;7.90;99.90;;;;;;4419981;28;658097;-69
2022/05/11 01:17:14;;;;;;;11.53;5.73;;;7.90;99.90;;;;;;4426908;28;656523;-68
2022/05/11 01:20:05;;;;;;;8.67;5.37;;;7.90;99.90;;;;;;4392216;28;656680;-68
2022/05/11 01:22:56;;;;;;;12.03;6.17;;;7.90;99.90;;;;;;4404534;28;655667;-68
2022/05/11 01:25:45;;;;;;;15.00;6.80;;;7.90;99.90;;;;;;4407171;28;656536;-69
2022/05/11 01:28:32;;;;;;;11.03;5.67;;;7.90;99.90;;;;;;4403413;28;657207;-68
2022/05/11 01:31:20;;;;;;;11.67;5.80;;;8.00;99.90;;;;;;4429470;28;656072;-67
2022/05/11 01:34:07;;;;;;;10.53;5.83;;;7.90;99.90;;;;;;4398684;28;657028;-69
2022/05/11 01:36:56;;;;;;;13.17;6.20;;;7.90;99.90;;;;;;4411190;28;656019;-68
2022/05/11 01:39:44;;;;;;;13.23;5.40;;;7.80;99.90;;;;;;4395783;28;658231;-68
2022/05/11 01:42:33;;;;;;;11.27;5.80;;;7.90;99.90;;;;;;4407234;28;657282;-68
2022/05/11 01:45:20;;;;;;;16.30;6.10;;;7.90;99.90;;;;;;4415908;28;657535;-69
2022/05/11 01:48:08;;;;;;;13.17;6.03;;;7.90;99.90;;;;;;4424303;28;657144;-68
2022/05/11 01:50:55;;;;;;;12.53;6.97;;;7.90;99.90;;;;;;4418828;28;657365;-69
2022/05/11 01:53:43;;;;;;;16.43;6.60;;;7.90;99.90;;;;;;4429033;28;656670;-67
2022/05/11 01:56:31;;;;;;;12.13;6.43;;;7.80;99.90;;;;;;4415398;28;658130;-69
2022/05/11 01:59:19;;;;;;;14.17;6.57;;;7.80;99.90;;;;;;4412827;28;657307;-68
2022/05/11 02:02:06;;;;;;;11.77;6.10;;;7.80;99.90;;;;;;4403594;28;656937;-69
2022/05/11 02:07:58;;;;;;;14.40;6.33;;;7.70;99.90;;;;;;4396872;28;656621;-67
2022/05/11 02:10:45;;;;;;;10.60;6.33;;;7.70;99.90;;;;;;4405849;28;656215;-68
2022/05/11 02:13:33;;;;;;;12.67;6.57;;;7.70;99.90;;;;;;4432593;28;657527;-68
2022/05/11 02:16:22;;;;;;;10.87;6.50;;;7.60;99.90;;;;;;4421358;28;656713;-69
2022/05/11 02:19:09;;;;;;;13.80;6.60;;;7.60;99.90;;;;;;4429024;28;655960;-68
2022/05/11 02:21:57;;;;;;;11.97;6.37;;;7.70;99.90;;;;;;4403339;28;657819;-68
2022/05/11 02:24:44;;;;;;;12.07;6.30;;;7.60;99.90;;;;;;4424839;28;656494;-68
2022/05/11 02:27:31;;;;;;;11.67;6.20;;;7.60;99.90;;;;;;4410169;28;656455;-68
2022/05/11 02:30:20;;;;;;;13.73;6.13;;;7.60;99.90;;;;;;4435592;28;656944;-68
2022/05/11 02:33:08;;;;;;;11.60;6.40;;;7.60;99.90;;;;;;4402990;28;658119;-68
2022/05/11 02:35:56;;;;;;;13.67;6.13;;;7.60;99.90;;;;;;4410399;28;656769;-67
2022/05/11 02:38:43;;;;;;;12.00;6.83;;;7.50;99.90;;;;;;4410845;28;656892;-68
2022/05/11 02:41:30;;;;;;;20.43;6.90;;;7.50;99.90;;;;;;4398461;28;657330;-68
2022/05/11 02:44:18;;;;;;;13.67;6.97;;;7.60;99.90;;;;;;4416255;28;657110;-68
2022/05/11 02:47:05;;;;;;;16.67;6.90;;;7.60;99.90;;;;;;4425930;28;656975;-70
2022/05/11 02:49:54;;;;;;;10.80;7.00;;;7.60;99.90;;;;;;4425028;28;657220;-68
2022/05/11 02:52:41;;;;;;;14.40;6.90;;;7.60;99.90;;;;;;4405806;28;656274;-69
2022/05/11 02:55:29;;;;;;;11.97;6.90;;;7.50;99.90;;;;;;4424713;28;655917;-68
2022/05/11 02:58:18;;;;;;;13.87;6.80;;;7.60;99.90;;;;;;4405615;28;657169;-69
2022/05/11 03:01:06;;;;;;;13.80;7.07;;;7.70;99.90;;;;;;4407221;28;656660;-70
2022/05/11 03:03:53;;;;;;;11.20;6.97;;;7.60;99.90;;;;;;4422122;28;656572;-69
2022/05/11 03:06:47;;;;;;;14.87;6.80;;;7.70;99.90;;;;;;4402216;28;656811;-69
2022/05/11 03:09:34;;;;;;;10.70;6.50;;;7.70;99.90;;;;;;4403663;28;656492;-69
2022/05/11 03:12:22;;;;;;;11.33;5.83;;;7.80;99.90;;;;;;4401125;28;656395;-68
2022/05/11 03:15:10;;;;;;;16.87;7.00;;;7.80;99.90;;;;;;4423369;28;656886;-68
2022/05/11 03:17:58;;;;;;;11.17;6.03;;;7.80;99.90;;;;;;4400757;28;657134;-69
2022/05/11 03:20:45;;;;;;;11.37;6.90;;;8.00;99.90;;;;;;4426110;28;656855;-69
2022/05/11 03:23:34;;;;;;;12.80;6.53;;;8.00;99.90;;;;;;4426048;28;657991;-68
2022/05/11 03:26:21;;;;;;;13.93;6.87;;;8.10;99.90;;;;;;4401996;28;657112;-68
2022/05/11 03:29:08;;;;;;;11.70;6.80;;;8.10;99.90;;;;;;4421484;28;657408;-69
2022/05/11 03:35:00;;;;;;;14.60;6.70;;;8.20;99.90;;;;;;4380658;28;656119;-69
2022/05/11 03:37:48;;;;;;;13.93;6.73;;;8.30;99.90;;;;;;4419665;28;657171;-68
2022/05/11 03:40:37;;;;;;;12.20;6.75;;;8.40;99.90;;;;;;4409044;28;656423;-69
2022/05/11 03:43:24;;;;;;;12.27;6.83;;;8.50;99.90;;;;;;4422986;28;656678;-68
2022/05/11 03:46:12;;;;;;;12.63;6.33;;;8.70;99.90;;;;;;4411253;28;657260;-68
2022/05/11 03:48:59;;;;;;;15.43;6.27;;;8.80;99.90;;;;;;4436356;28;656776;-68
2022/05/11 03:51:47;;;;;;;13.43;6.90;;;8.90;99.90;;;;;;4419362;28;657051;-68
2022/05/11 03:54:34;;;;;;;11.83;6.27;;;9.00;99.90;;;;;;4449527;28;656722;-68
2022/05/11 03:57:22;;;;;;;11.20;6.63;;;9.20;99.90;;;;;;4422575;28;656496;-68
2022/05/11 04:00:12;;;;;;;17.83;6.60;;;9.30;99.90;;;;;;4445940;28;656383;-70
2022/05/11 04:02:59;;;;;;;11.47;6.73;;;9.40;99.90;;;;;;4447524;28;656459;-69
2022/05/11 04:05:46;;;;;;;13.77;6.10;;;9.60;99.90;;;;;;4426313;28;657719;-68
2022/05/11 04:08:34;;;;;;;10.20;6.00;;;9.70;99.90;;;;;;4439386;28;656936;-68
2022/05/11 04:11:22;;;;;;;12.00;6.67;;;9.80;99.90;;;;;;4428072;28;656880;-69
2022/05/11 04:14:11;;;;;;;13.50;6.30;;;9.90;99.90;;;;;;4444346;28;656298;-70
2022/05/11 04:16:59;;;;;;;13.00;6.60;;;10.10;99.90;;;;;;4448393;28;656915;-68
2022/05/11 04:19:47;;;;;;;11.80;6.90;;;10.10;99.90;;;;;;4425708;28;658093;-69
2022/05/11 04:22:34;;;;;;;9.73;7.17;;;10.30;99.90;;;;;;4453112;28;657165;-68
2022/05/11 04:25:23;;;;;;;16.73;7.00;;;10.50;99.90;;;;;;4421189;28;656735;-69
2022/05/11 04:28:11;;;;;;;10.97;6.40;;;10.60;99.90;;;;;;4424923;28;658283;-70
2022/05/11 04:31:03;;;;;;;12.80;6.07;;;10.70;99.90;;;;;;4454761;28;658612;-69
2022/05/11 04:33:51;;;;;;;11.87;6.47;;;10.80;99.90;;;;;;4401101;28;657677;-70
2022/05/11 04:36:38;;;;;;;13.77;6.33;;;11.00;99.90;;;;;;4457702;28;658294;-69
2022/05/11 04:39:25;;;;;;;10.30;6.67;;;11.10;99.90;;;;;;4430245;28;658017;-69
2022/05/11 04:42:13;;;;;;;11.53;6.90;;;11.20;99.90;;;;;;4445119;28;659235;-69
2022/05/11 04:45:00;;;;;;;11.13;6.37;;;11.30;99.90;;;;;;4423698;28;657499;-69
2022/05/11 04:47:49;;;;;;;14.03;5.60;;;11.50;99.90;;;;;;4444245;28;657910;-69
2022/05/11 04:50:37;;;;;;;12.00;6.50;;;11.60;99.90;;;;;;4433155;28;657969;-69
2022/05/11 04:53:24;;;;;;;11.87;6.30;;;11.70;99.90;;;;;;4446192;28;657185;-69
2022/05/11 04:56:11;;;;;;;13.07;6.20;;;11.80;99.90;;;;;;4431918;28;657500;-69
2022/05/11 04:58:58;;;;;;;12.40;6.57;;;11.70;99.90;;;;;;4444813;28;657961;-69
2022/05/11 05:01:46;;;;;;;13.60;6.53;;;11.80;99.90;;;;;;4424446;28;657475;-70
2022/05/11 05:04:34;;;;;;;11.67;6.30;;;11.90;99.90;;;;;;4452581;28;657905;-69
2022/05/11 05:07:21;;;;;;;15.90;6.40;;;12.00;99.90;;;;;;4423940;28;657245;-69
2022/05/11 05:10:12;;;;;;;12.37;6.20;;;12.20;99.90;;;;;;4447686;28;657742;-69
2022/05/11 05:13:03;;;;;;;11.13;6.13;;;12.40;99.90;;;;;;4426607;28;657947;-69
2022/05/11 05:15:55;;;;;;;12.47;7.57;;;12.60;99.90;;;;;;4418099;28;657980;-69
2022/05/11 05:18:42;;;;;;;11.23;5.63;;;12.90;99.90;;;;;;4427742;28;658727;-69
2022/05/11 05:21:31;;;;;;;7.47;4.63;;;13.40;99.90;;;;;;4452925;28;657364;-69
2022/05/11 05:24:18;;;;;;;10.10;4.93;;;13.60;99.90;;;;;;4429686;28;657474;-69
2022/05/11 05:27:06;;;;;;;7.97;4.40;;;14.30;99.90;;;;;;4424094;28;657603;-70
2022/05/11 05:32:58;;;;;;;8.70;4.53;;;14.80;99.90;;;;;;4419471;28;657109;-69
2022/05/11 05:35:45;;;;;;;8.97;4.00;;;15.00;99.90;;;;;;4417374;28;656758;-70
2022/05/11 05:38:38;;;;;;;9.87;4.20;;;15.10;99.90;;;;;;4425695;28;657698;-69
2022/05/11 05:41:25;;;;;;;6.03;4.00;;;15.40;99.90;;;;;;4374429;28;657088;-70
2022/05/11 05:44:13;;;;;;;10.10;4.63;;;15.50;97.70;;;;;;4439655;28;656925;-70
2022/05/11 05:47:03;;;;;;;10.67;4.50;;;15.70;99.90;;;;;;4414508;28;657462;-71
2022/05/11 05:49:51;;;;;;;10.70;4.70;;;15.90;96.90;;;;;;4413753;28;657563;-70
2022/05/11 05:52:38;;;;;;;9.10;4.10;;;16.10;97.90;;;;;;4442620;28;657707;-70
2022/05/11 05:55:27;;;;;;;10.35;4.55;;;16.30;94.00;;;;;;4417393;28;656508;-70
2022/05/11 05:58:14;;;;;;;7.77;4.33;;;16.40;91.10;;;;;;4440565;28;657425;-69
2022/05/11 06:01:01;;;;;;;8.33;4.30;;;16.50;91.40;;;;;;4420887;28;656156;-69
2022/05/11 06:03:49;;;;;;;11.17;4.47;;;16.60;86.90;;;;;;4436810;28;656834;-69
2022/05/11 06:06:36;;;;;;;14.77;4.30;;;16.70;86.50;;;;;;4421643;28;657592;-69
2022/05/11 06:09:24;;;;;;;11.03;4.27;;;16.80;89.90;;;;;;4432846;28;657700;-70
2022/05/11 06:12:13;;;;;;;8.13;3.63;;;16.90;81.90;;;;;;4410766;28;657804;-69
2022/05/11 06:15:01;;;;;;;10.40;4.40;;;17.00;84.70;;;;;;4414545;28;656507;-69
2022/05/11 06:17:48;;;;;;;8.17;3.90;;;17.10;86.00;;;;;;4436218;28;658434;-69
2022/05/11 06:20:36;;;;;;;9.43;3.97;;;17.10;83.80;;;;;;4419454;28;656640;-72
2022/05/11 06:23:23;;;;;;;13.00;4.23;;;17.10;93.40;;;;;;4447205;28;656825;-71
2022/05/11 06:26:10;;;;;;;15.23;4.80;;;17.20;87.90;;;;;;4423505;28;657703;-71
2022/05/11 06:29:00;;;;;;;10.63;4.20;;;17.30;90.60;;;;;;4441453;28;658399;-70
2022/05/11 06:31:47;;;;;;;7.70;4.20;;;17.50;93.50;;;;;;4408668;28;658409;-69
2022/05/11 06:34:34;;;;;;;8.67;4.50;;;17.60;78.50;;;;;;4443936;28;655947;-69
2022/05/11 06:37:22;;;;;;;8.97;4.30;;;17.80;76.00;;;;;;4422339;28;656948;-70
2022/05/11 06:40:10;;;;;;;11.40;4.80;;;18.00;77.20;;;;;;4434487;28;656642;-70
2022/05/11 06:42:58;;;;;;;11.30;4.27;;;18.00;77.40;;;;;;4414723;28;659145;-70
2022/05/11 06:45:46;;;;;;;12.70;4.47;;;18.20;90.10;;;;;;4432542;28;657818;-71
2022/05/11 06:48:34;;;;;;;11.90;4.53;;;18.30;75.60;;;;;;4437746;28;657505;-70
2022/05/11 06:51:21;;;;;;;12.23;4.63;;;18.40;79.90;;;;;;4415901;28;657819;-70
2022/05/11 07:00:29;;;;;;;11.40;4.13;;;18.80;70.40;;;;;;4412771;28;656787;-69
2022/05/11 07:03:18;;;;;;;9.63;4.50;;;18.80;72.20;;;;;;4419859;28;657739;-71
2022/05/11 07:06:06;;;;;;;14.30;4.07;;;18.80;80.20;;;;;;4416845;28;656853;-70
2022/05/11 07:08:53;;;;;;;10.00;4.20;;;19.10;71.30;;;;;;4439491;28;658542;-70
2022/05/11 07:14:46;;;;;;;14.37;4.67;;;19.10;73.00;;;;;;4417596;28;657007;-71
2022/05/11 07:17:34;;;;;;;13.93;4.33;;;19.30;68.20;;;;;;4436111;28;657310;-70
2022/05/11 07:20:24;;;;;;;15.73;4.33;;;19.40;68.70;;;;;;4405936;28;658185;-71
2022/05/11 07:23:12;;;;;;;10.40;4.23;;;19.50;70.40;;;;;;4411805;28;658744;-69
2022/05/11 07:25:59;;;;;;;10.30;4.47;;;19.60;69.50;;;;;;4436127;28;657368;-70
2022/05/11 07:28:47;;;;;;;15.10;4.50;;;19.60;67.80;;;;;;4410186;28;658124;-70
2022/05/11 07:31:34;;;;;;;16.07;4.63;;;19.60;71.30;;;;;;4438133;28;657238;-70
2022/05/11 07:34:21;;;;;;;12.83;4.33;;;19.50;68.70;;;;;;4410800;28;657883;-70
2022/05/11 07:37:10;;;;;;;11.70;4.10;;;19.70;68.30;;;;;;4437290;28;657288;-69
2022/05/11 07:39:59;;;;;;;10.05;4.90;;;19.80;68.00;;;;;;4412172;28;658545;-70
2022/05/11 07:42:47;;;;;;;11.13;5.40;;;19.90;73.40;;;;;;4413263;28;658402;-70
2022/05/11 07:45:34;;;;;;;11.90;6.83;;;20.00;74.50;;;;;;4433059;28;657130;-70
2022/05/11 07:48:21;;;;;;;15.40;7.83;;;20.10;71.50;;;;;;4412330;28;657414;-69
2022/05/11 07:51:09;;;;;;;17.43;9.83;;;20.20;67.60;;;;;;4435310;28;657970;-70
2022/05/11 07:53:57;;;;;;;14.97;8.93;;;20.40;74.50;;;;;;4413340;28;657496;-71
2022/05/11 07:59:57;;;;;;;23.67;12.33;;;20.90;75.60;;;;;;4406944;28;658863;-70
2022/05/11 08:02:44;;;;;;;20.27;10.47;;;20.70;67.90;;;;;;4417272;28;659733;-70
2022/05/11 08:05:32;;;;;;;18.13;9.10;;;20.80;74.10;;;;;;4421885;28;658822;-71
2022/05/11 08:08:19;;;;;;;17.87;8.33;;;21.20;69.80;;;;;;4431838;28;658451;-70
2022/05/11 08:11:08;;;;;;;22.07;12.67;;;21.00;68.90;;;;;;4412815;28;658187;-69
2022/05/11 08:13:56;;;;;;;18.10;9.93;;;21.20;67.00;;;;;;4419197;28;658960;-69
2022/05/11 08:16:43;;;;;;;21.67;13.43;;;21.10;67.70;;;;;;4439058;28;659174;-69
2022/05/11 08:19:30;;;;;;;34.60;20.03;;;21.40;77.10;;;;;;4416562;28;658525;-70
2022/05/11 08:22:18;;;;;;;37.17;19.77;;;21.20;74.60;;;;;;4430652;28;659685;-70
2022/05/11 08:25:07;;;;;;;25.63;13.73;;;21.50;77.40;;;;;;4416708;28;658426;-70
2022/05/11 08:27:56;;;;;;;13.63;6.77;;;21.70;72.70;;;;;;4436110;28;658460;-70
2022/05/11 08:33:48;;;;;;;16.53;9.33;;;22.10;71.30;;;;;;4389853;28;657965;-70
2022/05/11 08:36:36;;;;;;;13.97;6.23;;;22.30;68.30;;;;;;4423273;28;657274;-70
2022/05/11 08:39:23;;;;;;;15.70;6.50;;;22.40;60.60;;;;;;4435891;28;658822;-70
2022/05/11 08:42:10;;;;;;;17.53;8.60;;;22.80;59.70;;;;;;4412477;28;657912;-70
2022/05/11 08:45:02;;;;;;;14.50;7.87;;;22.60;64.30;;;;;;4437641;28;658518;-69
2022/05/11 08:47:49;;;;;;;13.43;5.97;;;23.10;60.20;;;;;;4409050;28;658660;-70
2022/05/11 08:50:37;;;;;;;11.10;4.93;;;23.40;59.70;;;;;;4416805;28;658681;-71
2022/05/11 08:53:31;;;;;;;7.33;3.77;;;23.10;56.70;;;;;;4436133;28;657672;-69
2022/05/11 08:56:18;;;;;;;12.77;4.23;;;23.00;55.60;;;;;;4411731;28;657997;-70
2022/05/11 08:59:05;;;;;;;5.93;3.70;;;23.50;73.20;;;;;;4417238;28;657879;-71
2022/05/11 09:01:55;;;;;;;6.37;3.77;;;23.60;58.10;;;;;;4441075;28;657173;-70
2022/05/11 09:04:48;;;;;;;6.97;3.77;;;24.00;63.50;;;;;;4416716;28;657397;-70
2022/05/11 09:07:37;;;;;;;8.23;3.90;;;23.80;55.80;;;;;;4404056;28;658284;-71
2022/05/11 09:10:26;;;;;;;13.83;3.93;;;23.40;56.30;;;;;;4434567;28;656201;-70
2022/05/11 09:13:14;;;;;;;6.70;3.43;;;23.20;53.50;;;;;;4408746;28;658309;-70
2022/05/11 09:16:03;;;;;;;6.63;3.50;;;23.80;54.30;;;;;;4414372;28;657828;-69
2022/05/11 09:18:52;;;;;;;8.93;3.70;;;23.80;55.30;;;;;;4428126;28;656463;-71
2022/05/11 09:21:39;;;;;;;4.47;3.37;;;23.80;56.60;;;;;;4434676;28;656752;-70
2022/05/11 09:24:30;;;;;;;6.43;3.57;;;23.80;52.00;;;;;;4387598;28;656412;-70
2022/05/11 09:27:25;;;;;;;4.03;2.40;;;24.30;53.20;;;;;;4385510;28;657756;-69
2022/05/11 09:30:18;;;;;;;9.82;3.45;;;23.80;52.40;;;;;;4364065;28;657107;-70
2022/05/11 09:33:14;;;;;;;7.67;3.73;;;23.90;53.40;;;;;;4374109;28;656743;-71
2022/05/11 09:36:03;;;;;;;6.80;3.37;;;24.20;55.00;;;;;;4366714;28;656973;-71
2022/05/11 09:38:51;;;;;;;10.27;3.90;;;24.60;51.30;;;;;;4406657;28;656681;-71
2022/05/11 09:41:39;;;;;;;11.05;3.92;;;24.80;51.80;;;;;;4415138;28;657211;-69
2022/05/11 09:44:27;;;;;;;9.40;3.67;;;24.50;50.50;;;;;;4400804;28;658336;-69
2022/05/11 09:47:27;;;;;;;5.70;3.50;;;24.60;50.70;;;;;;4413215;28;656741;-70
2022/05/11 09:50:20;;;;;;;9.60;3.90;;;24.60;49.90;;;;;;4396224;28;656961;-70
2022/05/11 09:53:17;;;;;;;8.73;3.90;;;24.80;51.10;;;;;;4371433;28;656841;-70
2022/05/11 09:56:21;;;;;;;10.70;3.63;;;24.50;49.50;;;;;;4392564;28;656887;-70
2022/05/11 09:59:19;;;;;;;7.57;3.70;;;24.90;52.70;;;;;;4396793;28;658330;-70
2022/05/11 10:02:24;;;;;;;7.07;4.07;;;24.70;50.30;;;;;;4399404;28;657306;-70
2022/05/11 10:05:14;;;;;;;10.33;3.93;;;24.90;53.00;;;;;;4401165;28;656724;-70
2022/05/11 10:08:05;;;;;;;7.85;4.22;;;25.00;50.80;;;;;;4391472;28;657736;-70
2022/05/11 10:10:56;;;;;;;7.60;3.65;;;25.30;49.90;;;;;;4396195;28;658099;-69
2022/05/11 10:13:45;;;;;;;5.95;3.95;;;24.80;48.60;;;;;;4398625;28;657478;-70
2022/05/11 10:22:49;;;;;;;10.15;3.95;;;25.00;47.30;;;;;;4390825;28;656994;-70
2022/05/11 10:25:38;;;;;;;10.40;3.47;;;25.00;49.00;;;;;;4397109;28;657919;-70
2022/05/11 10:28:31;;;;;;;9.13;3.63;;;24.90;48.30;;;;;;4378554;28;658282;-69
2022/05/11 10:31:21;;;;;;;7.00;3.93;;;24.70;47.10;;;;;;4394175;28;656480;-69
2022/05/11 10:34:10;;;;;;;14.13;4.00;;;24.70;48.10;;;;;;4397144;28;658157;-69
2022/05/11 10:37:01;;;;;;;7.97;4.00;;;24.80;47.40;;;;;;4395450;28;657828;-70
2022/05/11 10:39:55;;;;;;;7.00;3.90;;;24.90;48.10;;;;;;4394168;28;657746;-70
2022/05/11 10:42:46;;;;;;;17.63;3.97;;;24.90;48.80;;;;;;4371878;28;657326;-69
2022/05/11 10:45:41;;;;;;;7.57;3.63;;;24.90;47.20;;;;;;4397977;28;658497;-69
2022/05/11 10:48:39;;;;;;;11.37;3.93;;;24.50;47.70;;;;;;4396735;28;657243;-69
2022/05/11 10:51:31;;;;;;;9.07;3.25;;;25.10;48.80;;;;;;4374322;28;657704;-69
2022/05/11 10:54:24;;;;;;;11.70;3.88;;;25.30;45.10;;;;;;4396488;28;656906;-69
2022/05/11 10:57:16;;;;;;;10.27;3.45;;;25.60;47.40;;;;;;4371640;28;659143;-70
2022/05/11 11:00:07;;;;;;;4.90;3.30;;;25.20;44.70;;;;;;4377064;28;658418;-70
2022/05/11 11:03:26;;;;;;;6.80;3.30;;;24.60;46.10;;;;;;4390550;28;657024;-69
2022/05/11 11:09:53;;;;;;;5.50;3.30;;;25.10;47.30;;;;;;4387614;28;657511;-66
2022/05/11 11:12:59;;;;;;;9.97;3.80;;;24.50;46.50;;;;;;4378927;28;657016;-66
2022/05/11 11:15:46;;;;;;;6.38;3.80;;;24.80;48.50;;;;;;4399434;28;657378;-67
2022/05/11 11:18:36;;;;;;;9.97;3.80;;;24.70;47.30;;;;;;4419485;28;657741;-66
2022/05/11 11:21:24;;;;;;;8.00;3.77;;;24.60;45.90;;;;;;4396013;28;657487;-67
2022/05/11 11:24:13;;;;;;;11.13;3.87;;;24.60;47.90;;;;;;4400812;28;656891;-66
2022/05/11 11:27:01;;;;;;;7.10;3.57;;;24.70;48.20;;;;;;4398087;28;657519;-67
2022/05/11 11:30:16;;;;;;;8.80;3.77;;;24.20;46.00;;;;;;4396179;28;657262;-67
2022/05/11 11:33:19;;;;;;;8.60;3.63;;;24.50;46.30;;;;;;4381261;28;657118;-67
2022/05/11 11:36:28;;;;;;;7.03;3.67;;;24.60;44.50;;;;;;4395908;28;656994;-66
2022/05/11 11:39:55;;;;;;;2.97;1.60;;;25.20;44.80;;;;;;4359797;28;656582;-67
2022/05/11 11:42:42;;;;;;;4.47;3.67;;;25.00;43.70;;;;;;4393390;28;657634;-66
2022/05/11 11:46:05;;;;;;;8.30;3.37;;;24.90;44.30;;;;;;4416669;28;657252;-67
2022/05/11 11:48:52;;;;;;;4.75;3.58;;;25.80;49.20;;;;;;4367404;28;656818;-66
2022/05/11 11:51:56;;;;;;;6.18;3.53;;;26.30;44.40;;;;;;4414809;28;656777;-66
2022/05/11 11:54:48;;;;;;;8.45;3.95;;;26.30;44.60;;;;;;4394560;28;657631;-66
2022/05/11 11:57:36;;;;;;;7.75;3.80;;;25.70;44.70;;;;;;4399796;28;656982;-66
2022/05/11 12:00:51;;;;;;;8.15;3.28;;;26.50;45.80;;;;;;4421943;28;656970;-66
2022/05/11 12:03:41;;;;;;;9.30;3.85;;;25.90;46.50;;;;;;4395005;28;657220;-67
2022/05/11 12:15:58;;;;;;;5.73;3.90;;;24.90;44.50;;;;;;4398582;28;656802;-67
2022/05/11 12:18:46;;;;;;;8.98;3.50;;;24.70;45.90;;;;;;4373886;28;656775;-67
2022/05/11 12:21:35;;;;;;;4.35;2.22;;;24.60;46.00;;;;;;4416805;28;657926;-67
2022/05/11 12:24:24;;;;;;;6.57;3.50;;;24.90;45.50;;;;;;4397691;28;657685;-66
2022/05/11 12:27:23;;;;;;;5.77;3.50;;;25.10;46.30;;;;;;4397392;28;656854;-66
2022/05/11 12:30:18;;;;;;;5.73;3.10;;;25.30;44.40;;;;;;4375612;28;656653;-66
2022/05/11 12:33:06;;;;;;;6.50;3.17;;;25.30;45.90;;;;;;4391751;28;656639;-66
2022/05/11 12:35:53;;;;;;;6.00;3.53;;;25.30;44.30;;;;;;4420380;28;657439;-67
2022/05/11 12:38:41;;;;;;;10.48;3.33;;;25.90;49.30;;;;;;4398835;28;657369;-66
2022/05/11 12:41:29;;;;;;;9.32;3.95;;;25.70;44.30;;;;;;4420107;28;658397;-66
2022/05/11 12:44:28;;;;;;;4.28;3.40;;;25.80;44.90;;;;;;4389511;28;656535;-66
2022/05/11 12:47:15;;;;;;;6.40;3.42;;;25.60;45.20;;;;;;4397287;28;656696;-66
2022/05/11 12:50:02;;;;;;;8.18;3.35;;;25.30;44.00;;;;;;4421217;28;658444;-66
2022/05/11 12:53:05;;;;;;;5.17;3.50;;;24.80;43.70;;;;;;4416546;28;657793;-66
2022/05/11 12:55:53;;;;;;;6.60;3.30;;;24.80;44.80;;;;;;4391788;28;656670;-66
2022/05/11 12:58:45;;;;;;;8.13;3.67;;;25.10;46.30;;;;;;4395891;28;656549;-66
2022/05/11 13:01:35;;;;;;;10.17;3.57;;;24.70;44.80;;;;;;4394618;28;658233;-66
2022/05/11 13:04:23;;;;;;;5.67;3.20;;;25.00;46.20;;;;;;4399002;28;657956;-66
2022/05/11 13:07:12;;;;;;;8.30;3.63;;;25.10;45.90;;;;;;4380593;28;656942;-66
2022/05/11 13:10:00;;;;;;;6.30;3.13;;;25.80;46.30;;;;;;4409613;28;657090;-67
2022/05/11 13:12:50;;;;;;;7.28;3.47;;;25.40;45.20;;;;;;4399922;28;656828;-67
2022/05/11 13:15:39;;;;;;;8.20;3.30;;;24.70;44.40;;;;;;4396713;28;657371;-66
2022/05/11 13:18:29;;;;;;;4.70;2.90;;;24.30;45.60;;;;;;4402316;28;657541;-66
2022/05/11 13:21:35;;;;;;;10.43;2.97;;;24.60;44.90;;;;;;4396023;28;656396;-66
2022/05/11 13:24:39;;;;;;;13.77;3.30;;;24.40;45.90;;;;;;4372479;28;658640;-66
2022/05/11 13:27:32;;;;;;;7.90;3.50;;;24.60;46.70;;;;;;4403257;28;657388;-66
2022/05/11 13:30:21;;;;;;;7.40;3.13;;;24.60;45.80;;;;;;4401453;28;656453;-67
2022/05/11 13:33:29;;;;;;;6.63;3.10;;;24.40;45.40;;;;;;4398786;28;657136;-66
2022/05/11 13:36:21;;;;;;;2.30;1.87;;;24.50;45.80;;;;;;4378048;28;656872;-66
2022/05/11 13:39:20;;;;;;;6.60;3.27;;;24.30;44.50;;;;;;4398990;28;657710;-66
2022/05/11 13:42:16;;;;;;;5.63;3.13;;;24.10;45.40;;;;;;4398376;28;656468;-66
2022/05/11 13:45:05;;;;;;;3.87;2.80;;;24.10;46.10;;;;;;4379393;28;657048;-67
2022/05/11 13:51:09;;;;;;;6.27;3.20;;;24.40;45.70;;;;;;4358904;28;657412;-66
2022/05/11 13:53:57;;;;;;;7.47;3.67;;;24.50;45.80;;;;;;4358307;28;656952;-66
2022/05/11 13:56:57;;;;;;;9.63;3.70;;;24.40;47.20;;;;;;4401843;28;656437;-66
2022/05/11 13:59:45;;;;;;;6.03;3.53;;;24.40;46.60;;;;;;4398535;28;656936;-66
2022/05/11 14:02:32;;;;;;;7.67;3.30;;;24.70;46.20;;;;;;4394922;28;658163;-66
2022/05/11 14:05:19;;;;;;;5.63;2.63;;;24.90;46.10;;;;;;4417668;28;657605;-66
2022/05/11 14:08:08;;;;;;;7.43;3.30;;;24.80;46.10;;;;;;4405777;28;656777;-66
2022/05/11 14:10:56;;;;;;;10.70;3.50;;;25.00;47.10;;;;;;4393947;28;657016;-66
2022/05/11 14:13:43;;;;;;;14.48;3.45;;;24.80;46.00;;;;;;4418137;28;657488;-66
2022/05/11 14:16:31;;;;;;;6.30;3.17;;;24.70;46.20;;;;;;4399706;28;657839;-66
2022/05/11 14:19:19;;;;;;;9.33;3.40;;;24.70;46.00;;;;;;4417220;28;657549;-66
2022/05/11 14:22:06;;;;;;;8.40;3.20;;;24.50;45.80;;;;;;4399266;28;658187;-66
2022/05/11 14:24:55;;;;;;;10.20;3.30;;;24.50;45.10;;;;;;4420949;28;656846;-67
2022/05/11 14:27:42;;;;;;;11.97;3.37;;;24.60;45.00;;;;;;4398247;28;659118;-66
2022/05/11 14:30:29;;;;;;;8.03;3.30;;;25.30;45.70;;;;;;4418373;28;657054;-66
2022/05/11 14:33:16;;;;;;;4.55;3.30;;;25.60;46.30;;;;;;4401789;28;657767;-66
2022/05/11 14:36:05;;;;;;;9.65;3.55;;;26.20;43.20;;;;;;4417063;28;657305;-66
2022/05/11 14:38:53;;;;;;;9.02;3.33;;;25.80;42.70;;;;;;4397575;28;657070;-66
2022/05/11 14:41:42;;;;;;;4.00;3.30;;;25.40;43.90;;;;;;4414746;28;656765;-66
2022/05/11 14:44:29;;;;;;;4.75;2.92;;;25.00;43.30;;;;;;4422591;28;657281;-67
2022/05/11 14:47:16;;;;;;;7.15;3.40;;;24.90;43.50;;;;;;4351479;28;656924;-66
2022/05/11 14:50:04;;;;;;;5.10;2.97;;;24.60;43.70;;;;;;4380909;28;657925;-66
2022/05/11 14:52:51;;;;;;;8.60;3.40;;;24.50;44.20;;;;;;4362115;28;656457;-66
2022/05/11 14:55:38;;;;;;;6.67;3.40;;;24.60;44.70;;;;;;4382753;28;657731;-66
2022/05/11 15:01:56;;;;;;;4.28;3.22;;;24.50;44.60;;;;;;4331423;28;656521;-66
2022/05/11 15:04:44;;;;;;;8.10;3.10;;;24.30;44.20;;;;;;4336305;28;657288;-66
2022/05/11 15:07:31;;;;;;;11.13;3.67;;;24.30;45.60;;;;;;4357329;28;657571;-67
2022/05/11 15:10:19;;;;;;;6.53;3.20;;;24.70;45.60;;;;;;4395749;28;658696;-66
2022/05/11 15:16:12;;;;;;;7.87;3.50;;;25.10;45.20;;;;;;4351421;28;657146;-67
2022/05/11 15:18:59;;;;;;;8.43;3.40;;;25.80;44.80;;;;;;4409356;28;657775;-66
2022/05/11 15:21:46;;;;;;;6.20;3.88;;;25.70;43.60;;;;;;4369593;28;656568;-66
2022/05/11 15:24:34;;;;;;;10.85;3.67;;;25.40;44.10;;;;;;4397599;28;657249;-66